createdAt,value
2019-02-12T00:00:39.885Z,4.53
2019-02-12T00:03:09.025Z,4.27
2019-02-12T00:05:38.259Z,3.80
2019-02-12T00:08:08.081Z,4.13
2019-02-12T00:10:37.357Z,3.80
2019-02-12T00:13:06.729Z,4.80
2019-02-12T00:15:36.520Z,4.62
2019-02-12T00:18:06.729Z,5.07
2019-02-12T00:20:36.884Z,4.10
2019-02-12T00:23:06.656Z,4.08
2019-02-12T00:25:36.197Z,4.23
2019-02-12T00:28:05.443Z,3.50
2019-02-12T00:30:34.772Z,4.87
2019-02-12T00:33:04.900Z,5.23
2019-02-12T00:35:34.493Z,4.30
2019-02-12T00:38:03.613Z,4.80
2019-02-12T00:40:33.077Z,4.57
2019-02-12T00:43:02.557Z,4.47
2019-02-12T00:45:31.984Z,4.73
2019-02-12T00:48:01.313Z,4.80
2019-02-12T00:50:30.665Z,4.43
2019-02-12T00:53:00.091Z,5.07
2019-02-12T00:55:29.216Z,4.93
2019-02-12T00:57:58.617Z,4.53
2019-02-12T01:00:28.317Z,4.50
2019-02-12T01:02:57.446Z,5.50
2019-02-12T01:05:28.068Z,4.50
2019-02-12T01:07:57.404Z,4.77
2019-02-12T01:10:27.008Z,4.53
2019-02-12T01:12:56.344Z,4.20
2019-02-12T01:15:26.064Z,4.43
2019-02-12T01:17:55.600Z,4.87
2019-02-12T01:20:25.089Z,5.00
2019-02-12T01:22:54.254Z,4.23
2019-02-12T01:25:23.889Z,5.30
2019-02-12T01:27:53.393Z,4.87
2019-02-12T01:30:22.742Z,4.60
2019-02-12T01:32:52.312Z,4.63
2019-02-12T01:35:21.401Z,5.07
2019-02-12T01:37:51.013Z,4.90
2019-02-12T01:40:20.225Z,4.53
2019-02-12T01:42:49.605Z,4.70
2019-02-12T01:45:18.969Z,4.70
2019-02-12T01:47:48.102Z,4.80
2019-02-12T01:50:17.222Z,4.60
2019-02-12T01:52:46.378Z,4.93
2019-02-12T01:55:15.921Z,5.83
2019-02-12T01:57:45.404Z,5.07
2019-02-12T02:00:15.096Z,5.35
2019-02-12T02:02:44.426Z,5.27
2019-02-12T02:05:13.577Z,5.17
2019-02-12T02:07:43.401Z,5.08
2019-02-12T02:10:15.141Z,5.00
2019-02-12T02:12:44.365Z,5.93
2019-02-12T02:15:14.038Z,5.47
2019-02-12T02:17:43.428Z,4.93
2019-02-12T02:20:13.418Z,5.03
2019-02-12T02:22:42.917Z,5.00
2019-02-12T02:25:12.170Z,5.70
2019-02-12T02:27:41.640Z,4.33
2019-02-12T02:30:12.966Z,5.63
2019-02-12T02:32:44.508Z,4.90
2019-02-12T02:35:13.957Z,5.03
2019-02-12T02:37:43.109Z,4.97
2019-02-12T02:40:12.704Z,4.92
2019-02-12T02:42:43.098Z,4.77
2019-02-12T02:45:13.501Z,5.35
2019-02-12T02:47:42.690Z,5.20
2019-02-12T02:50:12.845Z,4.50
2019-02-12T02:52:42.838Z,5.23
2019-02-12T02:55:12.849Z,4.93
2019-02-12T02:57:43.165Z,6.00
2019-02-12T03:00:13.332Z,5.78
2019-02-12T03:02:43.091Z,5.40
2019-02-12T03:05:13.445Z,6.00
2019-02-12T03:07:43.204Z,5.40
2019-02-12T03:10:13.665Z,5.70
2019-02-12T03:12:43.881Z,5.55
2019-02-12T03:15:13.797Z,5.23
2019-02-12T03:17:43.725Z,5.17
2019-02-12T03:20:13.032Z,5.90
2019-02-12T03:22:42.584Z,5.57
2019-02-12T03:25:11.879Z,5.20
2019-02-12T03:27:41.322Z,5.23
2019-02-12T03:30:11.049Z,6.10
2019-02-12T03:32:40.758Z,6.53
2019-02-12T03:35:10.052Z,5.93
2019-02-12T03:37:39.250Z,5.60
2019-02-12T03:40:09.615Z,5.50
2019-02-12T03:42:39.189Z,6.07
2019-02-12T03:45:09.821Z,6.47
2019-02-12T03:47:39.344Z,5.80
2019-02-12T03:50:09.451Z,6.50
2019-02-12T03:52:38.839Z,6.60
2019-02-12T03:55:08.989Z,6.77
2019-02-12T03:57:39.195Z,7.40
2019-02-12T04:00:10.661Z,7.53
2019-02-12T04:02:59.536Z,7.03
2019-02-12T04:05:28.719Z,6.80
2019-02-12T04:07:57.788Z,7.37
2019-02-12T04:10:26.963Z,7.07
2019-02-12T04:12:56.312Z,6.40
2019-02-12T04:15:25.797Z,6.63
2019-02-12T04:17:54.968Z,7.03
2019-02-12T04:20:24.475Z,6.80
2019-02-12T04:22:53.932Z,6.63
2019-02-12T04:25:23.388Z,6.43
2019-02-12T04:27:52.762Z,7.73
2019-02-12T04:30:22.154Z,7.67
2019-02-12T04:32:51.329Z,7.23
2019-02-12T04:35:20.706Z,7.57
2019-02-12T04:37:49.882Z,7.50
2019-02-12T04:40:18.976Z,8.30
2019-02-12T04:42:48.257Z,7.30
2019-02-12T04:45:18.311Z,6.87
2019-02-12T04:47:47.903Z,7.72
2019-02-12T04:50:18.053Z,7.77
2019-02-12T04:52:47.973Z,7.15
2019-02-12T04:55:18.689Z,6.60
2019-02-12T04:57:48.153Z,7.37
2019-02-12T05:00:17.308Z,7.77
2019-02-12T05:02:46.523Z,6.90
2019-02-12T05:05:17.680Z,7.20
2019-02-12T05:07:46.884Z,7.77
2019-02-12T05:10:17.063Z,7.73
2019-02-12T05:12:47.013Z,7.63
2019-02-12T05:15:16.490Z,8.40
2019-02-12T05:17:45.958Z,8.00
2019-02-12T05:20:15.152Z,9.63
2019-02-12T05:22:44.548Z,8.00
2019-02-12T05:25:14.233Z,8.60
2019-02-12T05:27:43.336Z,9.37
2019-02-12T05:30:13.190Z,8.73
2019-02-12T05:32:42.257Z,8.67
2019-02-12T05:35:12.374Z,9.97
2019-02-12T05:37:41.494Z,9.77
2019-02-12T05:40:10.905Z,10.80
2019-02-12T05:42:40.536Z,10.47
2019-02-12T05:45:10.705Z,10.50
2019-02-12T05:47:39.829Z,10.63
2019-02-12T05:50:11.782Z,10.00
2019-02-12T05:52:40.974Z,10.53
2019-02-12T05:55:10.428Z,10.20
2019-02-12T05:57:39.596Z,10.23
2019-02-12T06:00:12.494Z,11.10
2019-02-12T06:02:42.336Z,10.63
2019-02-12T06:05:11.669Z,9.87
2019-02-12T06:07:41.397Z,10.50
2019-02-12T06:10:11.067Z,10.93
2019-02-12T06:12:40.580Z,10.27
2019-02-12T06:15:09.689Z,10.90
2019-02-12T06:17:38.769Z,11.50
2019-02-12T06:20:08.031Z,10.23
2019-02-12T06:22:37.440Z,11.23
2019-02-12T06:25:08.284Z,11.97
2019-02-12T06:27:38.138Z,11.93
2019-02-12T06:30:07.926Z,10.37
2019-02-12T06:32:37.211Z,10.87
2019-02-12T06:35:06.944Z,10.60
2019-02-12T06:37:35.998Z,10.50
2019-02-12T06:40:05.852Z,10.77
2019-02-12T06:42:35.155Z,11.03
2019-02-12T06:45:05.715Z,10.53
2019-02-12T06:47:34.860Z,11.20
2019-02-12T06:50:04.177Z,10.70
2019-02-12T06:52:34.177Z,11.60
2019-02-12T06:55:03.876Z,10.63
2019-02-12T06:57:36.815Z,11.63
2019-02-12T07:00:07.293Z,10.87
2019-02-12T07:03:25.855Z,10.97
2019-02-12T07:06:05.330Z,9.70
2019-02-12T07:09:11.719Z,10.03
2019-02-12T07:12:21.860Z,10.50
2019-02-12T07:15:24.516Z,10.70
2019-02-12T07:18:04.762Z,10.50
2019-02-12T07:21:01.529Z,10.07
2019-02-12T07:23:58.539Z,11.13
2019-02-12T07:26:56.738Z,10.40
2019-02-12T07:30:09.224Z,12.20
2019-02-12T07:32:58.104Z,12.40
2019-02-12T07:35:54.624Z,13.63
2019-02-12T07:38:34.913Z,15.67
2019-02-12T07:41:41.465Z,14.07
2019-02-12T07:44:47.490Z,14.33
2019-02-12T07:47:30.213Z,15.07
2019-02-12T07:51:01.785Z,14.37
2019-02-12T07:53:54.258Z,13.93
2019-02-12T07:56:52.793Z,13.47
2019-02-12T07:59:55.138Z,14.03
2019-02-12T08:03:07.298Z,14.87
2019-02-12T08:06:16.360Z,13.43
2019-02-12T08:09:21.816Z,13.13
2019-02-12T08:12:18.286Z,13.10
2019-02-12T08:15:24.360Z,11.87
2019-02-12T08:18:19.930Z,12.27
2019-02-12T08:21:28.920Z,12.13
2019-02-12T08:24:41.204Z,13.30
2019-02-12T08:27:26.471Z,12.83
2019-02-12T08:30:27.301Z,12.93
2019-02-12T08:33:45.177Z,12.97
2019-02-12T08:36:42.233Z,12.80
2019-02-12T08:39:40.917Z,13.83
2019-02-12T08:42:43.409Z,14.45
2019-02-12T08:46:03.238Z,15.67
2019-02-12T08:49:12.720Z,14.83
2019-02-12T08:52:33.509Z,15.07
2019-02-12T08:55:14.921Z,14.97
2019-02-12T08:58:09.914Z,14.43
2019-02-12T09:00:51.960Z,15.90
2019-02-12T09:04:03.769Z,15.53
2019-02-12T09:07:09.754Z,15.70
2019-02-12T09:10:20.306Z,15.90
2019-02-12T09:13:10.573Z,16.13
2019-02-12T09:16:25.176Z,14.90
2019-02-12T09:19:23.371Z,15.33
2019-02-12T09:22:12.115Z,17.47
2019-02-12T09:25:22.033Z,14.93
2019-02-12T09:28:31.485Z,15.70
2019-02-12T09:31:36.921Z,15.23
2019-02-12T09:34:31.672Z,15.77
2019-02-12T09:38:12.333Z,16.17
2019-02-12T09:41:09.377Z,17.80
2019-02-12T09:44:18.511Z,17.27
2019-02-12T09:47:05.018Z,16.83
2019-02-12T09:50:11.697Z,17.13
2019-02-12T09:53:12.100Z,16.30
2019-02-12T09:56:20.965Z,16.83
2019-02-12T09:59:31.521Z,17.80
2019-02-12T10:02:32.762Z,18.45
2019-02-12T10:05:26.887Z,17.87
2019-02-12T10:08:27.762Z,18.00
2019-02-12T10:11:46.773Z,18.40
2019-02-12T10:14:22.937Z,17.70
2019-02-12T10:17:17.560Z,18.17
2019-02-12T10:20:14.240Z,19.80
2019-02-12T10:23:08.037Z,18.70
2019-02-12T10:25:55.000Z,18.63
2019-02-12T10:28:57.505Z,18.87
2019-02-12T10:31:44.045Z,17.20
2019-02-12T10:34:13.537Z,18.90
2019-02-12T10:36:42.822Z,18.50
2019-02-12T10:39:15.497Z,18.07
2019-02-12T10:41:45.001Z,18.83
2019-02-12T10:44:14.150Z,17.43
2019-02-12T10:46:43.735Z,18.83
2019-02-12T10:49:12.906Z,16.23
2019-02-12T10:51:42.345Z,16.10
2019-02-12T10:54:13.491Z,16.13
2019-02-12T10:56:42.526Z,16.07
2019-02-12T10:59:14.416Z,15.50
2019-02-12T11:01:43.605Z,15.13
2019-02-12T11:04:13.168Z,14.77
2019-02-12T11:06:42.300Z,13.53
2019-02-12T11:09:12.046Z,14.50
2019-02-12T11:11:41.133Z,15.67
2019-02-12T11:14:10.218Z,15.03
2019-02-12T11:16:39.655Z,14.90
2019-02-12T11:19:08.744Z,14.77
2019-02-12T11:21:37.941Z,14.10
2019-02-12T11:24:07.037Z,13.20
2019-02-12T11:26:36.140Z,14.15
2019-02-12T11:29:05.225Z,13.87
2019-02-12T11:31:34.402Z,14.20
2019-02-12T11:34:03.524Z,13.77
2019-02-12T11:36:32.752Z,14.53
2019-02-12T11:39:01.858Z,14.27
2019-02-12T11:41:31.004Z,15.10
2019-02-12T11:44:00.060Z,15.57
2019-02-12T11:46:30.128Z,13.43
2019-02-12T11:48:59.352Z,13.90
2019-02-12T11:51:28.430Z,14.40
2019-02-12T11:53:58.048Z,13.30
2019-02-12T11:56:27.542Z,14.27
2019-02-12T11:58:57.304Z,13.03
2019-02-12T12:01:30.128Z,13.33
2019-02-12T12:03:59.904Z,12.55
2019-02-12T12:06:29.068Z,12.80
2019-02-12T12:08:58.478Z,12.47
2019-02-12T12:11:27.674Z,13.00
2019-02-12T12:13:56.768Z,11.07
2019-02-12T12:16:26.133Z,13.70
2019-02-12T12:18:55.269Z,13.27
2019-02-12T12:21:24.490Z,12.60
2019-02-12T12:23:53.586Z,13.70
2019-02-12T12:26:23.746Z,11.63
2019-02-12T12:28:52.972Z,12.20
2019-02-12T12:31:22.024Z,11.93
2019-02-12T12:33:51.142Z,12.57
2019-02-12T12:36:20.309Z,11.37
2019-02-12T12:38:50.185Z,11.27
2019-02-12T12:41:20.045Z,11.80
2019-02-12T12:43:49.157Z,11.33
2019-02-12T12:46:18.384Z,11.43
2019-02-12T12:48:47.916Z,13.67
2019-02-12T12:51:17.305Z,11.67
2019-02-12T12:53:47.607Z,11.07
2019-02-12T12:56:18.118Z,12.37
2019-02-12T12:58:47.281Z,10.63
2019-02-12T13:01:16.393Z,10.87
2019-02-12T13:03:45.569Z,10.03
2019-02-12T13:06:14.742Z,10.23
2019-02-12T13:08:44.045Z,9.53
2019-02-12T13:11:13.161Z,10.73
2019-02-12T13:13:42.279Z,10.53
2019-02-12T13:16:11.469Z,8.93
2019-02-12T13:18:42.157Z,9.33
2019-02-12T13:21:11.445Z,9.17
2019-02-12T13:23:45.180Z,8.53
2019-02-12T13:26:14.592Z,9.00
2019-02-12T13:28:43.981Z,9.43
2019-02-12T13:31:13.567Z,7.97
2019-02-12T13:33:42.821Z,7.63
2019-02-12T13:36:11.997Z,7.63
2019-02-12T13:38:41.997Z,8.23
2019-02-12T13:41:11.162Z,7.60
2019-02-12T13:43:41.697Z,8.50
2019-02-12T13:46:10.812Z,7.50
2019-02-12T13:48:39.873Z,7.67
2019-02-12T13:51:09.272Z,7.20
2019-02-12T13:53:38.353Z,7.87
2019-02-12T13:56:07.789Z,8.13
2019-02-12T13:58:38.399Z,7.20
2019-02-12T14:01:07.741Z,7.63
2019-02-12T14:03:37.043Z,7.80
2019-02-12T14:06:06.472Z,8.10
2019-02-12T14:08:35.841Z,8.10
2019-02-12T14:11:05.235Z,8.50
2019-02-12T14:13:34.433Z,9.13
2019-02-12T14:16:05.873Z,8.05
2019-02-12T14:18:36.108Z,8.00
2019-02-12T14:21:05.190Z,8.13
2019-02-12T14:23:34.397Z,8.67
2019-02-12T14:26:04.099Z,8.40
2019-02-12T14:28:33.566Z,8.23
2019-02-12T14:31:03.009Z,9.53
2019-02-12T14:33:32.537Z,8.00
2019-02-12T14:36:01.965Z,8.97
2019-02-12T14:38:31.084Z,8.73
2019-02-12T14:41:00.302Z,7.97
2019-02-12T14:43:29.416Z,8.33
2019-02-12T14:45:59.857Z,9.23
2019-02-12T14:48:29.452Z,8.23
2019-02-12T14:50:59.556Z,8.73
2019-02-12T14:53:28.692Z,8.50
2019-02-12T14:55:58.088Z,8.40
2019-02-12T14:58:27.443Z,7.67
2019-02-12T15:00:56.542Z,8.57
2019-02-12T15:03:25.660Z,8.65
2019-02-12T15:05:54.913Z,8.70
2019-02-12T15:08:24.301Z,9.33
2019-02-12T15:10:53.413Z,8.13
2019-02-12T15:13:22.753Z,8.80
2019-02-12T15:15:51.996Z,8.17
2019-02-12T15:18:21.092Z,9.00
2019-02-12T15:20:50.506Z,8.57
2019-02-12T15:23:20.073Z,8.73
2019-02-12T15:25:50.381Z,8.53
2019-02-12T15:28:20.380Z,9.17
2019-02-12T15:30:49.608Z,9.13
2019-02-12T15:33:19.113Z,8.83
2019-02-12T15:35:49.701Z,9.07
2019-02-12T15:38:19.157Z,8.43
2019-02-12T15:40:48.289Z,8.77
2019-02-12T15:43:18.226Z,8.40
2019-02-12T15:45:47.380Z,9.47
2019-02-12T15:48:16.588Z,8.83
2019-02-12T15:50:45.667Z,8.65
2019-02-12T15:53:15.466Z,9.20
2019-02-12T15:55:51.128Z,8.77
2019-02-12T15:58:15.837Z,8.40
2019-02-12T16:00:45.009Z,8.60
2019-02-12T16:03:16.171Z,8.87
2019-02-12T16:05:45.450Z,9.67
2019-02-12T16:08:14.513Z,9.97
2019-02-12T16:10:43.689Z,9.27
2019-02-12T16:13:13.684Z,9.33
2019-02-12T16:15:45.191Z,8.63
2019-02-12T16:18:14.146Z,9.17
2019-02-12T16:20:43.308Z,9.13
2019-02-12T16:23:12.809Z,9.23
2019-02-12T16:25:42.461Z,9.73
2019-02-12T16:28:11.621Z,9.50
2019-02-12T16:30:40.677Z,9.60
2019-02-12T16:33:09.839Z,9.67
2019-02-12T16:35:38.984Z,11.73
2019-02-12T16:38:08.120Z,10.20
2019-02-12T16:40:37.215Z,11.33
2019-02-12T16:43:06.664Z,11.30
2019-02-12T16:45:39.997Z,11.00
2019-02-12T16:48:09.498Z,11.27
2019-02-12T16:50:38.598Z,11.53
2019-02-12T16:53:07.664Z,11.57
2019-02-12T16:55:36.829Z,11.03
2019-02-12T16:58:06.035Z,11.67
2019-02-12T17:00:35.581Z,11.57
2019-02-12T17:03:04.701Z,11.12
2019-02-12T17:05:33.817Z,11.50
2019-02-12T17:08:03.380Z,13.83
2019-02-12T17:10:33.233Z,16.60
2019-02-12T17:13:02.342Z,18.97
2019-02-12T17:15:31.664Z,20.07
2019-02-12T17:18:00.783Z,18.97
2019-02-12T17:20:29.977Z,17.20
2019-02-12T17:22:59.122Z,17.43
2019-02-12T17:25:28.927Z,19.17
2019-02-12T17:27:57.976Z,17.80
2019-02-12T17:30:27.225Z,16.67
2019-02-12T17:32:57.136Z,18.67
2019-02-12T17:35:26.371Z,13.67
2019-02-12T17:37:55.825Z,15.17
2019-02-12T17:40:25.449Z,14.93
2019-02-12T17:42:54.541Z,14.93
2019-02-12T17:45:24.057Z,15.77
2019-02-12T17:47:54.153Z,15.03
2019-02-12T17:50:23.847Z,14.25
2019-02-12T17:52:54.086Z,13.80
2019-02-12T17:55:23.887Z,12.20
2019-02-12T17:57:54.041Z,12.60
2019-02-12T18:00:27.109Z,12.73
2019-02-12T18:02:56.290Z,12.47
2019-02-12T18:05:26.445Z,12.37
2019-02-12T18:07:55.593Z,12.30
2019-02-12T18:10:24.702Z,12.10
2019-02-12T18:12:54.573Z,11.20
2019-02-12T18:15:24.710Z,12.40
2019-02-12T18:17:55.160Z,12.15
2019-02-12T18:20:26.823Z,12.20
2019-02-12T18:22:56.199Z,13.53
2019-02-12T18:25:27.136Z,12.50
2019-02-12T18:27:56.581Z,13.17
2019-02-12T18:30:26.106Z,12.40
2019-02-12T18:32:57.037Z,14.57
2019-02-12T18:35:26.541Z,17.30
2019-02-12T18:37:56.250Z,15.32
2019-02-12T18:40:26.366Z,16.10
2019-02-12T18:42:56.471Z,16.17
2019-02-12T18:45:26.280Z,15.93
2019-02-12T18:47:56.073Z,15.18
2019-02-12T18:50:25.460Z,15.70
2019-02-12T18:52:54.797Z,14.80
2019-02-12T18:55:24.028Z,16.53
2019-02-12T18:57:53.143Z,15.57
2019-02-12T19:00:22.397Z,14.83
2019-02-12T19:02:51.584Z,13.80
2019-02-12T19:05:21.141Z,13.23
2019-02-12T19:07:50.326Z,14.33
2019-02-12T19:10:19.524Z,14.57
2019-02-12T19:12:49.044Z,13.63
2019-02-12T19:15:18.145Z,14.33
2019-02-12T19:17:51.064Z,14.33
2019-02-12T19:20:20.210Z,14.77
2019-02-12T19:22:49.617Z,13.40
2019-02-12T19:25:18.826Z,12.57
2019-02-12T19:27:52.606Z,14.13
2019-02-12T19:30:23.660Z,13.50
2019-02-12T19:32:52.790Z,13.87
2019-02-12T19:35:21.869Z,13.60
2019-02-12T19:37:51.011Z,14.20
2019-02-12T19:40:20.456Z,14.37
2019-02-12T19:42:49.784Z,13.57
2019-02-12T19:45:18.904Z,13.70
2019-02-12T19:47:49.883Z,13.70
2019-02-12T19:50:19.318Z,14.30
2019-02-12T19:52:49.505Z,13.77
2019-02-12T19:55:18.861Z,13.77
2019-02-12T19:57:48.028Z,13.72
2019-02-12T20:00:19.272Z,15.20
2019-02-12T20:02:48.659Z,13.80
2019-02-12T20:05:18.252Z,14.07
2019-02-12T20:07:47.484Z,14.23
2019-02-12T20:10:16.843Z,15.15
2019-02-12T20:12:46.573Z,15.63
2019-02-12T20:15:15.808Z,14.70
2019-02-12T20:17:45.281Z,14.90
2019-02-12T20:20:14.347Z,14.37
2019-02-12T20:22:43.497Z,13.87
2019-02-12T20:25:12.710Z,13.70
2019-02-12T20:27:42.509Z,12.97
2019-02-12T20:30:13.418Z,14.37
2019-02-12T20:32:42.892Z,14.60
2019-02-12T20:35:12.748Z,13.93
2019-02-12T20:37:42.246Z,13.17
2019-02-12T20:40:12.117Z,13.93
2019-02-12T20:42:42.277Z,14.03
2019-02-12T20:45:13.253Z,13.88
2019-02-12T20:47:42.434Z,13.83
2019-02-12T20:50:12.667Z,13.90
2019-02-12T20:52:41.972Z,13.13
2019-02-12T20:55:11.244Z,13.73
2019-02-12T20:57:40.481Z,13.70
2019-02-12T21:00:12.425Z,14.07
2019-02-12T21:02:42.425Z,12.53
2019-02-12T21:05:12.288Z,14.60
2019-02-12T21:07:41.370Z,13.20
2019-02-12T21:10:12.602Z,13.62
2019-02-12T21:12:42.079Z,13.67
2019-02-12T21:15:13.413Z,13.67
2019-02-12T21:17:43.233Z,13.60
2019-02-12T21:20:12.463Z,13.43
2019-02-12T21:22:41.969Z,12.17
2019-02-12T21:25:11.210Z,13.17
2019-02-12T21:27:40.311Z,13.97
2019-02-12T21:30:11.774Z,14.13
2019-02-12T21:32:41.156Z,14.03
2019-02-12T21:35:10.517Z,13.37
2019-02-12T21:37:39.889Z,14.30
2019-02-12T21:40:14.889Z,13.80
2019-02-12T21:42:44.345Z,13.93
2019-02-12T21:45:13.469Z,14.00
2019-02-12T21:47:42.637Z,14.27
2019-02-12T21:50:12.150Z,14.20
2019-02-12T21:52:41.585Z,14.33
2019-02-12T21:55:12.395Z,13.23
2019-02-12T21:57:41.781Z,14.20
2019-02-12T22:00:13.672Z,14.57
2019-02-12T22:02:43.061Z,15.13
2019-02-12T22:05:12.734Z,14.07
2019-02-12T22:07:42.126Z,14.87
2019-02-12T22:10:13.833Z,15.13
2019-02-12T22:12:43.320Z,14.70
2019-02-12T22:15:13.345Z,14.40
2019-02-12T22:17:42.737Z,14.73
2019-02-12T22:20:14.004Z,17.00
2019-02-12T22:22:43.370Z,16.53
2019-02-12T22:25:12.799Z,13.63
2019-02-12T22:27:42.169Z,13.50
2019-02-12T22:30:16.241Z,17.53
2019-02-12T22:32:46.200Z,18.97
2019-02-12T22:35:15.357Z,18.43
2019-02-12T22:37:45.445Z,15.43
2019-02-12T22:40:14.984Z,14.50
2019-02-12T22:42:44.438Z,14.23
2019-02-12T22:45:18.354Z,15.53
2019-02-12T22:47:47.833Z,15.97
2019-02-12T22:50:17.281Z,15.00
2019-02-12T22:52:46.569Z,14.63
2019-02-12T22:55:15.918Z,14.63
2019-02-12T22:57:49.191Z,14.60
2019-02-12T23:00:48.787Z,14.30
2019-02-12T23:03:21.149Z,14.17
2019-02-12T23:05:50.618Z,13.17
2019-02-12T23:08:19.808Z,13.77
2019-02-12T23:10:49.386Z,13.83
2019-02-12T23:13:18.584Z,13.43
2019-02-12T23:15:47.804Z,12.73
2019-02-12T23:18:17.338Z,13.53
2019-02-12T23:20:46.760Z,13.33
2019-02-12T23:23:16.178Z,13.43
2019-02-12T23:25:45.376Z,12.87
2019-02-12T23:28:14.512Z,14.07
2019-02-12T23:30:43.793Z,12.43
2019-02-12T23:33:13.590Z,12.50
2019-02-12T23:35:43.002Z,13.07
2019-02-12T23:38:12.072Z,13.40
2019-02-12T23:40:41.605Z,13.40
2019-02-12T23:43:11.148Z,13.17
2019-02-12T23:45:40.297Z,13.33
2019-02-12T23:48:09.562Z,13.30
2019-02-12T23:50:39.301Z,12.30
2019-02-12T23:53:08.528Z,13.20
2019-02-12T23:55:37.768Z,12.77
2019-02-12T23:58:08.102Z,12.97
